Time;durP1;ratioP1;P1;durP2;ratioP2;P2;SDS_P1;SDS_P2;PMS_P1;PMS_P2;Temp;Humidity;BMP_temperature;BMP_pressure;BME280_temperature;BME280_humidity;BME280_pressure;Samples;Min_cycle;Max_cycle;Signal;HPM_P1;HPM_P2
2022/02/16 00:01:43;;;;;;;12.32;8.93;;;;;;;5.43;100.00;100063.50;10195480;28;20081;-75
2022/02/16 00:06:40;;;;;;;12.82;10.13;;;;;;;5.51;100.00;100061.22;10186028;28;20046;-74
2022/02/16 00:11:36;;;;;;;14.60;9.25;;;;;;;5.49;100.00;100056.06;10186093;28;20073;-73
2022/02/16 00:16:33;;;;;;;12.75;9.55;;;;;;;5.50;100.00;100057.69;10183353;28;20105;-73
2022/02/16 00:21:29;;;;;;;11.40;9.18;;;;;;;5.57;100.00;100060.81;10192915;28;20104;-73
2022/02/16 00:26:26;;;;;;;11.32;8.35;;;;;;;5.60;100.00;100046.66;10189358;28;20115;-74
2022/02/16 00:31:22;;;;;;;11.88;7.75;;;;;;;5.58;100.00;100045.34;10190976;28;20070;-72
2022/02/16 00:36:19;;;;;;;10.60;5.85;;;;;;;5.57;100.00;100036.41;10186889;28;20073;-72
2022/02/16 00:41:16;;;;;;;8.80;5.70;;;;;;;5.65;100.00;100038.41;10193383;28;20481;-72
2022/02/16 00:46:12;;;;;;;7.82;4.75;;;;;;;5.65;100.00;100016.72;10196139;28;20081;-72
2022/02/16 00:51:09;;;;;;;6.70;4.53;;;;;;;5.65;100.00;100019.41;10197248;28;20543;-72
2022/02/16 00:56:05;;;;;;;9.30;4.60;;;;;;;5.72;100.00;100023.66;10197479;28;20085;-72
2022/02/16 01:01:02;;;;;;;7.05;4.60;;;;;;;5.65;100.00;100032.19;10197520;28;20054;-72
2022/02/16 01:05:59;;;;;;;7.93;4.72;;;;;;;5.75;100.00;100014.91;10199706;28;20049;-73
2022/02/16 01:10:56;;;;;;;7.75;5.20;;;;;;;5.72;100.00;100010.09;10204607;28;20092;-74
2022/02/16 01:15:53;;;;;;;8.55;4.90;;;;;;;5.70;100.00;100005.75;10196213;28;20046;-74
2022/02/16 01:20:49;;;;;;;9.77;6.28;;;;;;;5.69;100.00;100006.88;10196712;28;20078;-74
2022/02/16 01:25:46;;;;;;;9.30;6.20;;;;;;;5.65;100.00;99995.00;10197371;28;20096;-74
2022/02/16 01:30:42;;;;;;;9.23;7.15;;;;;;;5.74;100.00;99992.41;10198371;28;20515;-74
2022/02/16 01:35:39;;;;;;;11.18;8.02;;;;;;;5.77;100.00;99986.34;10195595;28;20052;-75
2022/02/16 01:40:36;;;;;;;10.88;7.82;;;;;;;5.80;100.00;99974.09;10190484;28;20045;-75
2022/02/16 01:45:35;;;;;;;10.90;6.68;;;;;;;5.79;100.00;99967.88;10196469;28;20050;-74
2022/02/16 01:50:32;;;;;;;10.93;7.25;;;;;;;5.83;100.00;99968.09;10195957;28;20079;-72
2022/02/16 01:55:29;;;;;;;10.45;7.30;;;;;;;5.86;100.00;99956.63;10195982;28;20073;-73
2022/02/16 02:00:26;;;;;;;10.43;6.95;;;;;;;5.84;100.00;99954.19;10193852;28;20073;-73
2022/02/16 02:05:22;;;;;;;11.95;7.78;;;;;;;5.87;100.00;99947.34;10186513;28;20049;-73
2022/02/16 02:10:19;;;;;;;11.75;7.05;;;;;;;5.86;100.00;99932.19;10195353;28;20053;-72
2022/02/16 02:15:15;;;;;;;10.00;5.82;;;;;;;5.93;100.00;99929.88;10199123;28;20045;-71
2022/02/16 02:20:20;;;;;;;9.75;6.72;;;;;;;5.99;100.00;99934.09;10197531;28;20120;-71
2022/02/16 02:25:17;;;;;;;11.70;7.63;;;;;;;6.02;100.00;99917.19;10160415;28;20122;-72
2022/02/16 02:30:14;;;;;;;13.23;8.98;;;;;;;6.04;100.00;99909.56;10198957;28;20081;-71
2022/02/16 02:35:12;;;;;;;13.27;9.57;;;;;;;6.04;100.00;99897.91;10189014;28;20081;-71
2022/02/16 02:40:09;;;;;;;15.75;11.18;;;;;;;6.00;100.00;99897.72;10192762;28;20077;-73
2022/02/16 02:45:07;;;;;;;18.38;10.70;;;;;;;6.08;100.00;99888.84;10191009;28;20085;-73
2022/02/16 02:50:05;;;;;;;19.33;13.02;;;;;;;6.11;100.00;99871.94;10191568;28;20133;-73
2022/02/16 02:55:08;;;;;;;18.40;14.02;;;;;;;6.07;100.00;99865.50;10193744;28;20058;-74
2022/02/16 03:00:08;;;;;;;20.70;14.98;;;;;;;6.09;100.00;99857.88;10176398;28;20048;-74
2022/02/16 03:05:06;;;;;;;20.95;14.00;;;;;;;6.14;100.00;99853.44;10190568;28;20068;-73
2022/02/16 03:10:03;;;;;;;20.05;14.50;;;;;;;6.16;100.00;99862.06;10193480;28;20089;-72
2022/02/16 03:15:00;;;;;;;21.60;15.52;;;;;;;6.22;100.00;99868.97;10190974;28;20184;-73
2022/02/16 03:19:57;;;;;;;20.80;15.63;;;;;;;6.30;100.00;99868.22;10194644;28;20074;-72
2022/02/16 03:24:53;;;;;;;21.27;16.42;;;;;;;6.30;100.00;99873.66;10184800;28;20039;-71
2022/02/16 03:29:50;;;;;;;19.05;14.68;;;;;;;6.32;100.00;99882.28;10187484;28;20053;-72
2022/02/16 03:34:46;;;;;;;19.38;15.45;;;;;;;6.29;100.00;99877.50;10203436;28;20037;-72
2022/02/16 03:39:44;;;;;;;17.70;14.75;;;;;;;6.32;100.00;99868.72;10191402;28;20693;-71
2022/02/16 03:44:41;;;;;;;19.25;14.98;;;;;;;6.39;100.00;99866.38;10190633;28;20038;-71
2022/02/16 03:49:38;;;;;;;18.52;14.43;;;;;;;6.44;100.00;99855.38;10198256;28;20045;-71
2022/02/16 03:54:34;;;;;;;18.33;14.30;;;;;;;6.46;100.00;99855.88;10173184;28;20133;-75
2022/02/16 03:59:31;;;;;;;18.48;14.27;;;;;;;6.45;100.00;99843.41;10191367;28;20092;-73
2022/02/16 04:04:31;;;;;;;19.42;14.85;;;;;;;6.50;100.00;99846.00;10190063;28;20045;-73
2022/02/16 04:09:27;;;;;;;17.08;13.65;;;;;;;6.52;100.00;99838.34;10189292;28;20046;-71
2022/02/16 04:14:29;;;;;;;17.33;14.15;;;;;;;6.57;100.00;99823.81;10195233;28;20496;-74
2022/02/16 04:19:25;;;;;;;17.50;14.80;;;;;;;6.57;100.00;99823.81;10196352;28;20069;-74
2022/02/16 04:24:22;;;;;;;16.48;12.80;;;;;;;6.64;100.00;99815.22;10183995;28;20074;-73
2022/02/16 04:29:19;;;;;;;19.20;15.23;;;;;;;6.59;100.00;99804.47;10192381;28;20046;-72
2022/02/16 04:34:15;;;;;;;18.73;14.35;;;;;;;6.55;100.00;99809.75;10186817;28;20088;-70
2022/02/16 04:39:12;;;;;;;15.40;12.27;;;;;;;6.58;100.00;99794.75;10178262;28;20447;-70
2022/02/16 04:44:09;;;;;;;17.00;11.82;;;;;;;6.52;100.00;99789.44;10181751;28;20459;-73
2022/02/16 04:49:05;;;;;;;16.65;12.73;;;;;;;6.58;100.00;99787.38;10184623;28;20061;-72
2022/02/16 04:54:02;;;;;;;17.95;12.63;;;;;;;6.50;100.00;99785.44;10187281;28;20046;-73
2022/02/16 04:58:58;;;;;;;23.38;14.60;;;;;;;6.55;100.00;99774.44;10181065;28;20061;-72
2022/02/16 05:03:55;;;;;;;17.90;12.73;;;;;;;6.55;100.00;99760.06;10189047;28;20081;-72
2022/02/16 05:08:51;;;;;;;17.88;12.35;;;;;;;6.55;100.00;99746.50;10174118;28;20070;-72
2022/02/16 05:13:48;;;;;;;16.25;12.18;;;;;;;6.59;100.00;99742.00;10179325;28;20047;-73
2022/02/16 05:18:44;;;;;;;17.77;11.73;;;;;;;6.57;100.00;99725.22;10168634;28;20120;-72
2022/02/16 05:23:41;;;;;;;18.80;13.43;;;;;;;6.60;100.00;99711.03;10164897;28;20048;-73
2022/02/16 05:28:38;;;;;;;22.40;12.40;;;;;;;6.58;100.00;99705.09;10176584;28;20531;-73
2022/02/16 05:33:36;;;;;;;18.63;13.50;;;;;;;6.57;100.00;99688.03;10187357;28;20121;-75
2022/02/16 05:38:35;;;;;;;23.80;14.18;;;;;;;6.52;100.00;99680.81;10185985;28;20427;-74
2022/02/16 05:43:32;;;;;;;20.55;14.70;;;;;;;6.50;100.00;99655.91;10190940;28;20039;-75
2022/02/16 05:48:29;;;;;;;18.17;12.73;;;;;;;6.52;100.00;99644.69;10184796;28;20073;-73
2022/02/16 05:53:26;;;;;;;17.48;12.02;;;;;;;6.46;100.00;99627.75;10185620;28;20136;-73
2022/02/16 05:58:28;;;;;;;17.33;11.07;;;;;;;6.36;100.00;99616.41;10172022;28;20043;-73
2022/02/16 06:03:25;;;;;;;15.00;9.70;;;;;;;6.43;100.00;99601.25;10172802;28;20042;-73
2022/02/16 06:08:22;;;;;;;11.68;8.00;;;;;;;6.42;100.00;99588.78;10174932;28;20112;-72
2022/02/16 06:13:19;;;;;;;13.48;8.18;;;;;;;6.44;100.00;99570.25;10162325;28;20464;-76
2022/02/16 06:18:15;;;;;;;10.65;7.60;;;;;;;6.33;100.00;99552.66;10188874;28;20041;-76
2022/02/16 06:23:12;;;;;;;12.00;7.60;;;;;;;6.37;100.00;99558.28;10196511;28;20466;-76
2022/02/16 06:28:08;;;;;;;12.32;8.40;;;;;;;6.37;100.00;99558.28;10189572;28;20169;-76
2022/02/16 06:33:05;;;;;;;11.80;8.15;;;;;;;6.34;100.00;99559.72;10195319;28;20100;-76
2022/02/16 06:38:03;;;;;;;12.43;8.98;;;;;;;6.37;100.00;99552.84;10165133;28;20089;-76
2022/02/16 06:43:00;;;;;;;12.70;8.43;;;;;;;6.29;100.00;99535.44;10194480;28;20084;-77
2022/02/16 06:47:56;;;;;;;11.95;8.55;;;;;;;6.29;100.00;99503.66;10182364;28;20054;-77
2022/02/16 06:52:53;;;;;;;11.25;7.85;;;;;;;6.32;100.00;99483.22;10187309;28;20126;-77
2022/02/16 06:57:49;;;;;;;12.38;7.80;;;;;;;6.34;100.00;99444.91;10173129;28;20042;-77
2022/02/16 07:02:47;;;;;;;14.73;9.05;;;;;;;6.39;100.00;99456.38;10195374;28;20419;-77
2022/02/16 07:07:47;;;;;;;11.93;8.52;;;;;;;6.36;100.00;99431.78;10181695;28;20049;-77
2022/02/16 07:12:43;;;;;;;11.18;6.95;;;;;;;6.27;100.00;99418.25;10195255;28;20050;-77
2022/02/16 07:17:41;;;;;;;11.68;7.32;;;;;;;6.34;100.00;99413.13;10183752;28;20500;-77
2022/02/16 07:22:39;;;;;;;11.23;7.35;;;;;;;6.24;100.00;99408.00;10194569;28;20042;-77
2022/02/16 07:27:36;;;;;;;10.27;6.95;;;;;;;6.28;100.00;99388.03;10174612;28;20045;-74
2022/02/16 07:32:36;;;;;;;9.05;6.78;;;;;;;6.34;100.00;99390.59;10194732;28;20038;-77
2022/02/16 07:37:32;;;;;;;12.48;6.63;;;;;;;6.37;100.00;99374.47;10182867;28;20149;-77
2022/02/16 07:42:29;;;;;;;8.18;6.32;;;;;;;6.40;100.00;99362.94;10192555;28;20516;-77
2022/02/16 07:47:25;;;;;;;8.93;5.72;;;;;;;6.43;100.00;99354.16;10179532;28;20112;-78
2022/02/16 07:52:22;;;;;;;13.80;6.65;;;;;;;6.45;100.00;99341.06;10193224;28;20069;-77
2022/02/16 07:57:18;;;;;;;11.35;7.43;;;;;;;6.46;100.00;99323.66;10177580;28;20460;-77
2022/02/16 08:02:15;;;;;;;13.15;7.22;;;;;;;6.55;100.00;99303.81;10191477;28;20125;-77
2022/02/16 08:07:11;;;;;;;9.68;6.45;;;;;;;6.52;100.00;99289.78;10183571;28;21092;-77
2022/02/16 08:12:08;;;;;;;9.32;6.50;;;;;;;6.59;100.00;99278.41;10176507;28;20067;-77
2022/02/16 08:17:05;;;;;;;9.90;6.70;;;;;;;6.59;100.00;99261.28;10192582;28;20088;-78
2022/02/16 08:22:02;;;;;;;11.55;7.18;;;;;;;6.63;100.00;99256.81;10192416;28;20038;-77
2022/02/16 08:27:00;;;;;;;10.48;7.53;;;;;;;6.67;100.00;99238.75;10191058;28;20523;-77
2022/02/16 08:31:57;;;;;;;9.77;6.45;;;;;;;6.73;100.00;99213.00;10193103;28;20081;-78
2022/02/16 08:36:55;;;;;;;9.18;5.78;;;;;;;6.71;100.00;99215.25;10188713;28;20871;-77
2022/02/16 08:41:54;;;;;;;11.82;6.28;;;;;;;6.74;100.00;99206.44;10193066;28;20050;-79
2022/02/16 08:46:51;;;;;;;9.02;5.57;;;;;;;6.74;100.00;99181.97;10165738;28;20043;-78
2022/02/16 08:51:47;;;;;;;10.07;6.32;;;;;;;6.77;100.00;99170.44;10153388;28;20042;-77
2022/02/16 08:56:46;;;;;;;8.55;5.63;;;;;;;6.77;100.00;99148.72;10161104;28;20512;-77
2022/02/16 09:01:43;;;;;;;9.35;5.68;;;;;;;6.86;100.00;99135.06;10158366;28;20104;-77
2022/02/16 09:07:27;;;;;;;7.18;5.15;;;;;;;6.87;100.00;99115.72;10163113;28;20050;-77
2022/02/16 09:11:56;;;;;;;6.57;4.15;;;;;;;6.82;100.00;99091.47;10178019;28;20120;-77
2022/02/16 09:16:52;;;;;;;6.93;4.00;;;;;;;6.87;100.00;99087.75;10183650;28;20574;-77
2022/02/16 09:21:49;;;;;;;5.82;3.70;;;;;;;6.83;100.00;99065.91;10179973;28;20069;-79
2022/02/16 09:26:50;;;;;;;7.60;4.15;;;;;;;6.83;100.00;99055.03;10195246;28;20096;-77
2022/02/16 09:31:49;;;;;;;5.13;3.30;;;;;;;6.87;100.00;99023.38;10198770;28;20085;-77
2022/02/16 09:36:45;;;;;;;6.38;3.00;;;;;;;6.87;100.00;99017.94;10189706;28;20480;-77
2022/02/16 09:41:47;;;;;;;4.15;2.47;;;;;;;6.88;100.00;98992.34;10197797;28;20500;-77
2022/02/16 09:46:43;;;;;;;4.70;2.88;;;;;;;6.90;100.00;98984.66;10189919;28;20050;-77
2022/02/16 09:51:40;;;;;;;3.67;1.85;;;;;;;6.92;100.00;98970.75;10198279;28;20096;-77
2022/02/16 09:56:41;;;;;;;3.38;1.85;;;;;;;6.92;100.00;98949.78;10181972;28;20050;-77
2022/02/16 10:02:02;;;;;;;6.32;2.25;;;;;;;6.95;100.00;98959.19;10158087;28;20114;-78
2022/02/16 10:07:01;;;;;;;3.72;1.70;;;;;;;6.98;100.00;98935.97;10160252;28;20488;-78
2022/02/16 10:12:04;;;;;;;3.13;1.50;;;;;;;7.08;100.00;98924.69;10161261;28;20038;-78
2022/02/16 10:17:15;;;;;;;2.80;1.40;;;;;;;7.17;100.00;98930.78;10195367;28;20107;-78
2022/02/16 10:22:11;;;;;;;4.28;1.35;;;;;;;7.32;100.00;98908.38;10196853;28;20563;-78
2022/02/16 10:27:09;;;;;;;4.15;1.30;;;;;;;7.46;100.00;98908.03;10195834;28;20050;-77
2022/02/16 10:32:05;;;;;;;2.38;0.98;;;;;;;7.55;100.00;98905.19;10195239;28;20057;-77
2022/02/16 10:37:09;;;;;;;2.05;0.85;;;;;;;7.63;100.00;98915.16;10175142;28;20086;-77
2022/02/16 10:42:10;;;;;;;2.38;0.88;;;;;;;7.63;100.00;98885.22;10157195;28;20078;-78
2022/02/16 10:47:11;;;;;;;2.10;1.13;;;;;;;7.76;100.00;98889.53;10169172;28;20049;-78
2022/02/16 10:52:10;;;;;;;3.33;1.00;;;;;;;7.79;100.00;98888.81;10196008;28;20096;-77
2022/02/16 10:57:07;;;;;;;3.33;1.50;;;;;;;7.89;100.00;98879.41;10181870;28;20503;-76
2022/02/16 11:02:05;;;;;;;3.92;1.30;;;;;;;7.90;100.00;98855.72;10195788;28;20053;-77
2022/02/16 11:07:04;;;;;;;5.38;1.38;;;;;;;7.99;100.00;98853.63;10173064;28;20054;-77
2022/02/16 11:12:03;;;;;;;3.17;1.30;;;;;;;8.06;100.00;98851.13;10156076;28;20052;-77
2022/02/16 11:17:01;;;;;;;2.97;1.40;;;;;;;8.17;100.00;98849.47;10184176;28;20116;-77
2022/02/16 11:22:00;;;;;;;3.28;1.40;;;;;;;8.23;100.00;98837.19;10154295;28;20464;-77
2022/02/16 11:26:57;;;;;;;3.08;1.65;;;;;;;8.30;100.00;98828.41;10194135;28;20066;-77
2022/02/16 11:32:14;;;;;;;3.30;1.63;;;;;;;8.39;100.00;98839.16;10179959;28;20057;-76
2022/02/16 11:37:10;;;;;;;4.35;2.45;;;;;;;8.40;100.00;98825.22;10173131;28;20104;-78
2022/02/16 11:42:34;;;;;;;3.75;2.20;;;;;;;8.44;100.00;98828.03;10184722;28;20085;-77
2022/02/16 11:47:33;;;;;;;4.60;3.10;;;;;;;8.54;100.00;98824.81;10153040;28;20483;-77
2022/02/16 11:52:38;;;;;;;4.53;2.33;;;;;;;8.58;100.00;98825.69;10194343;28;20464;-77
2022/02/16 11:57:43;;;;;;;4.95;3.65;;;;;;;8.66;100.00;98825.84;10180415;28;20041;-77
2022/02/16 12:02:59;;;;;;;3.80;2.17;;;;;;;8.70;100.00;98862.16;10193380;28;20508;-77
2022/02/16 12:08:14;;;;;;;4.60;3.05;;;;;;;8.79;100.00;98832.81;10178653;28;20464;-77
2022/02/16 12:13:12;;;;;;;5.15;3.00;;;;;;;8.87;100.00;98859.09;10192928;28;20499;-77
2022/02/16 12:18:14;;;;;;;;;;;;;;;8.91;100.00;98861.91;10161053;28;20419;-75
2022/02/16 12:23:16;;;;;;;4.50;2.65;;;;;;;8.95;100.00;98866.31;10160772;28;19968;-75
2022/02/16 12:28:13;;;;;;;5.00;3.20;;;;;;;8.98;100.00;98903.78;10185844;28;20133;-75
2022/02/16 12:33:21;;;;;;;3.92;2.50;;;;;;;9.02;100.00;98877.38;10190246;28;20065;-74
2022/02/16 12:38:25;;;;;;;4.18;2.78;;;;;;;9.06;100.00;98883.72;10190415;28;20107;-74
2022/02/16 12:43:22;;;;;;;3.67;2.38;;;;;;;9.12;100.00;98886.16;10196524;28;20136;-74
2022/02/16 12:48:19;;;;;;;5.60;2.47;;;;;;;9.18;100.00;98890.22;10189994;28;20046;-76
2022/02/16 12:53:16;;;;;;;6.20;2.38;;;;;;;9.25;100.00;98904.03;10195594;28;20050;-74
2022/02/16 12:58:13;;;;;;;3.50;2.00;;;;;;;9.32;100.00;98896.00;10188474;28;20430;-76
2022/02/16 13:03:11;;;;;;;7.00;2.67;;;;;;;9.40;100.00;98896.97;10197718;28;20133;-74
2022/02/16 13:08:10;;;;;;;5.38;2.03;;;;;;;9.47;100.00;98889.75;10196005;28;20142;-74
2022/02/16 13:13:21;;;;;;;4.88;1.95;;;;;;;9.59;100.00;98893.53;10186983;28;20058;-75
2022/02/16 13:18:30;;;;;;;4.68;1.35;;;;;;;9.63;100.00;98872.53;10173525;28;20042;-74
2022/02/16 13:23:31;;;;;;;4.78;1.95;;;;;;;9.65;100.00;98875.72;10164994;28;20091;-75
2022/02/16 13:28:29;;;;;;;10.88;2.50;;;;;;;9.71;100.00;98863.38;10186137;28;20108;-76
2022/02/16 13:33:30;;;;;;;8.48;2.45;;;;;;;9.73;100.00;98874.72;10199084;28;20100;-76
2022/02/16 13:38:29;;;;;;;9.30;2.67;;;;;;;9.76;100.00;98860.34;10183952;28;20054;-76
2022/02/16 13:43:53;;;;;;;8.00;2.10;;;;;;;9.81;100.00;98865.53;10198452;28;20100;-76
2022/02/16 13:49:16;;;;;;;7.60;2.35;;;;;;;9.82;100.00;98853.47;10195450;28;20050;-76
2022/02/16 13:54:18;;;;;;;5.47;2.20;;;;;;;9.84;100.00;98851.19;10194317;28;20053;-76
2022/02/16 13:59:14;;;;;;;7.60;2.22;;;;;;;9.94;100.00;98849.03;10165271;28;20077;-75
2022/02/16 14:04:11;;;;;;;9.88;2.35;;;;;;;9.92;100.00;98845.88;10164761;28;20039;-76
2022/02/16 14:09:07;;;;;;;11.65;3.00;;;;;;;9.88;100.00;98841.09;10156388;28;20046;-78
2022/02/16 14:14:04;;;;;;;9.95;2.53;;;;;;;9.92;100.00;98829.50;10189746;28;20454;-78
2022/02/16 14:24:15;;;;;;;12.82;2.13;;;;;;;10.08;100.00;98860.25;10187136;28;20046;-77
2022/02/16 14:29:12;;;;;;;14.55;2.92;;;;;;;10.15;100.00;98884.16;10191362;28;20054;-78
2022/02/16 14:34:08;;;;;;;15.15;1.90;;;;;;;10.16;100.00;98867.41;10187604;28;20479;-77
2022/02/16 14:39:10;;;;;;;12.80;1.88;;;;;;;10.18;100.00;98867.84;10189839;28;20081;-76
2022/02/16 14:44:10;;;;;;;20.10;3.03;;;;;;;10.22;100.00;98833.22;10187477;28;20061;-76
2022/02/16 14:49:09;;;;;;;16.05;2.70;;;;;;;10.21;100.00;98798.06;10184909;28;20057;-78
2022/02/16 14:54:06;;;;;;;14.82;2.58;;;;;;;10.26;100.00;98778.66;10177856;28;20050;-76
2022/02/16 14:59:05;;;;;;;18.63;2.80;;;;;;;10.25;100.00;98777.84;10190918;28;20462;-76
2022/02/16 15:04:02;;;;;;;16.90;3.10;;;;;;;10.26;100.00;98784.91;10170079;28;20042;-76
2022/02/16 15:08:59;;;;;;;17.63;2.88;;;;;;;10.29;100.00;98767.03;10191126;28;20050;-76
2022/02/16 15:13:55;;;;;;;16.00;2.85;;;;;;;10.39;100.00;98765.63;10161556;28;20130;-76
2022/02/16 15:18:55;;;;;;;18.70;3.42;;;;;;;10.43;100.00;98739.16;10158595;28;20519;-76
2022/02/16 15:23:51;;;;;;;16.33;2.47;;;;;;;10.48;100.00;98719.72;10160924;28;20074;-75
2022/02/16 15:28:49;;;;;;;16.20;3.72;;;;;;;10.50;100.00;98714.69;10157313;28;20508;-71
2022/02/16 15:33:45;;;;;;;16.17;2.50;;;;;;;10.54;100.00;98707.34;10175639;28;20054;-72
2022/02/16 15:38:43;;;;;;;19.42;3.72;;;;;;;10.52;100.00;98660.47;10164239;28;20527;-77
2022/02/16 15:43:41;;;;;;;9.73;2.17;;;;;;;10.51;100.00;98648.75;10172604;28;20045;-77
2022/02/16 15:48:38;;;;;;;14.27;2.10;;;;;;;10.57;100.00;98689.44;10168041;28;20507;-76
2022/02/16 15:53:37;;;;;;;12.10;2.35;;;;;;;10.57;100.00;98731.19;10169062;28;20047;-76
2022/02/16 15:58:35;;;;;;;11.18;2.63;;;;;;;10.62;100.00;98762.91;10159287;28;20061;-76
2022/02/16 16:03:31;;;;;;;12.68;2.28;;;;;;;10.62;100.00;98809.34;10168040;28;20038;-76
2022/02/16 16:08:28;;;;;;;11.43;2.63;;;;;;;10.67;100.00;98782.50;10179959;28;20407;-76
2022/02/16 16:13:24;;;;;;;11.60;1.85;;;;;;;10.66;100.00;98750.88;10169563;28;20530;-76
2022/02/16 16:18:21;;;;;;;14.30;2.78;;;;;;;10.60;100.00;98754.28;10165493;28;20074;-75
2022/02/16 16:23:18;;;;;;;15.43;2.50;;;;;;;10.61;100.00;98756.66;10178929;28;20042;-76
2022/02/16 16:28:15;;;;;;;11.70;2.20;;;;;;;10.67;100.00;98763.38;10167984;28;20073;-75
2022/02/16 16:33:12;;;;;;;13.48;3.25;;;;;;;10.64;100.00;98749.66;10163065;28;20097;-69
2022/02/16 16:38:08;;;;;;;14.38;2.65;;;;;;;10.65;100.00;98745.75;10166822;28;20096;-69
2022/02/16 16:43:06;;;;;;;18.95;3.03;;;;;;;10.65;100.00;98745.75;10177883;28;20124;-68
2022/02/16 16:48:03;;;;;;;15.48;2.47;;;;;;;10.62;100.00;98719.94;10161561;28;20069;-69
2022/02/16 16:53:00;;;;;;;10.93;3.30;;;;;;;10.62;100.00;98714.50;10179628;28;20527;-69
2022/02/16 16:57:56;;;;;;;13.20;2.05;;;;;;;10.63;100.00;98704.34;10178755;28;20133;-69
2022/02/16 17:02:54;;;;;;;16.98;3.28;;;;;;;10.61;100.00;98685.59;10169627;28;20615;-69
2022/02/16 17:07:52;;;;;;;15.20;2.60;;;;;;;10.66;100.00;98668.88;10173731;28;20056;-69
2022/02/16 17:12:50;;;;;;;13.23;2.50;;;;;;;10.65;100.00;98664.59;10173523;28;20108;-68
2022/02/16 17:17:46;;;;;;;12.70;2.92;;;;;;;10.65;100.00;98653.66;10170046;28;20137;-69
2022/02/16 17:22:45;;;;;;;18.13;3.80;;;;;;;10.63;100.00;98644.22;10176831;28;20512;-69
2022/02/16 17:27:41;;;;;;;14.77;3.28;;;;;;;10.68;100.00;98625.56;10186481;28;20418;-69
2022/02/16 17:32:38;;;;;;;14.18;3.38;;;;;;;10.66;100.00;98622.41;10196167;28;20080;-69
2022/02/16 17:37:35;;;;;;;13.55;3.05;;;;;;;10.69;100.00;98605.28;10184206;28;20069;-69
2022/02/16 17:42:31;;;;;;;16.95;4.07;;;;;;;10.71;100.00;98594.75;10178257;28;20086;-69
2022/02/16 17:47:29;;;;;;;16.38;3.40;;;;;;;10.73;100.00;98605.31;10169228;28;20518;-69
2022/02/16 17:52:30;;;;;;;18.00;3.28;;;;;;;10.73;100.00;98633.44;10157664;28;20137;-69
2022/02/16 17:57:26;;;;;;;15.30;3.42;;;;;;;10.76;100.00;98647.53;10173270;28;20615;-68
2022/02/16 18:02:23;;;;;;;19.73;4.57;;;;;;;10.63;100.00;98650.50;10154949;28;20508;-65
2022/02/16 18:07:19;;;;;;;19.27;4.00;;;;;;;10.46;100.00;98646.31;10162396;28;20085;-68
2022/02/16 18:12:16;;;;;;;19.55;4.68;;;;;;;10.34;100.00;98637.56;10154724;28;20100;-69
2022/02/16 18:17:12;;;;;;;21.70;5.05;;;;;;;10.15;100.00;98652.84;10166205;28;20067;-68
2022/02/16 18:22:09;;;;;;;23.13;6.18;;;;;;;10.00;100.00;98637.34;10170922;28;20050;-68
2022/02/16 18:27:05;;;;;;;26.42;7.53;;;;;;;9.86;100.00;98597.78;10173525;28;20077;-68
2022/02/16 18:32:04;;;;;;;23.25;6.50;;;;;;;9.70;100.00;98591.66;10158842;28;20050;-68
2022/02/16 18:37:01;;;;;;;21.48;6.22;;;;;;;9.61;100.00;98572.00;10165262;28;20073;-68
2022/02/16 18:41:57;;;;;;;20.67;6.32;;;;;;;9.59;100.00;98555.19;10162666;28;20147;-68
2022/02/16 18:46:54;;;;;;;36.35;7.03;;;;;;;9.47;100.00;98532.41;10182110;28;20107;-68
2022/02/16 18:51:50;;;;;;;26.85;6.28;;;;;;;9.43;100.00;98493.34;10191434;28;20583;-67
2022/02/16 18:56:47;;;;;;;35.45;8.07;;;;;;;9.44;100.00;98489.47;10187170;28;20042;-68
2022/02/16 19:01:44;;;;;;;27.67;7.45;;;;;;;9.50;100.00;98454.50;10161568;28;20093;-68
2022/02/16 19:06:40;;;;;;;23.17;7.00;;;;;;;9.50;100.00;98442.81;10166468;28;20130;-68
2022/02/16 19:11:37;;;;;;;30.33;7.53;;;;;;;9.44;100.00;98413.09;10161264;28;20073;-68
2022/02/16 19:16:33;;;;;;;25.50;5.82;;;;;;;9.29;100.00;98367.69;10156592;28;20508;-68
2022/02/16 19:21:30;;;;;;;23.90;6.32;;;;;;;9.23;100.00;98363.69;10162218;28;20066;-68
2022/02/16 19:26:27;;;;;;;27.83;7.20;;;;;;;9.17;100.00;98316.88;10190395;28;20084;-68
2022/02/16 19:31:24;;;;;;;26.65;6.30;;;;;;;9.20;100.00;98283.41;10175215;28;20140;-68
2022/02/16 19:36:20;;;;;;;25.60;6.85;;;;;;;9.16;100.00;98243.63;10183950;28;20466;-68
2022/02/16 19:41:18;;;;;;;30.00;7.18;;;;;;;9.18;100.00;98214.84;10189747;28;20062;-68
2022/02/16 19:46:15;;;;;;;18.83;6.32;;;;;;;9.20;100.00;98228.09;10164528;28;20503;-68
2022/02/16 19:51:11;;;;;;;44.35;11.00;;;;;;;9.24;100.00;98239.84;10165614;28;20500;-68
2022/02/16 19:56:08;;;;;;;30.25;10.15;;;;;;;9.22;100.00;98187.63;10179498;28;20058;-68
2022/02/16 20:01:04;;;;;;;31.83;10.05;;;;;;;9.26;100.00;98218.47;10185202;28;20205;-68
2022/02/16 20:06:01;;;;;;;21.33;8.77;;;;;;;9.29;100.00;98236.81;10171346;28;20558;-68
2022/02/16 20:10:58;;;;;;;22.60;8.60;;;;;;;9.36;100.00;98217.78;10176960;28;20042;-68
2022/02/16 20:15:54;;;;;;;19.45;6.82;;;;;;;9.38;100.00;98185.50;10181653;28;20475;-68
2022/02/16 20:20:51;;;;;;;14.27;5.32;;;;;;;9.36;100.00;98138.72;10181031;28;20073;-68
2022/02/16 20:25:48;;;;;;;20.70;6.80;;;;;;;9.42;100.00;98126.31;10172582;28;20065;-68
2022/02/16 20:30:45;;;;;;;16.83;5.90;;;;;;;9.42;100.00;98099.06;10183622;28;20050;-69
2022/02/16 20:35:50;;;;;;;20.15;5.50;;;;;;;9.50;100.00;98110.03;10165781;28;20058;-68
2022/02/16 20:40:47;;;;;;;15.38;5.35;;;;;;;9.50;100.00;98071.84;10186173;28;20500;-67
2022/02/16 20:45:44;;;;;;;15.73;5.30;;;;;;;9.52;100.00;98034.84;10173005;28;20153;-66
2022/02/16 20:50:47;;;;;;;13.15;5.00;;;;;;;9.55;100.00;98009.53;10169469;28;20054;-69
2022/02/16 20:55:44;;;;;;;12.55;3.72;;;;;;;9.60;100.00;97994.78;10157222;28;20124;-68
2022/02/16 21:00:41;;;;;;;10.93;3.70;;;;;;;9.67;100.00;97994.81;10174893;28;20081;-69
2022/02/16 21:05:37;;;;;;;14.02;5.53;;;;;;;9.68;100.00;97980.03;10186208;28;20669;-72
2022/02/16 21:10:35;;;;;;;9.57;3.47;;;;;;;9.74;100.00;97962.13;10185981;28;20101;-70
2022/02/16 21:15:31;;;;;;;6.85;3.30;;;;;;;9.79;100.00;97948.13;10170253;28;20053;-68
2022/02/16 21:20:29;;;;;;;11.15;3.40;;;;;;;9.83;100.00;97931.78;10163666;28;20042;-69
2022/02/16 21:25:27;;;;;;;7.10;2.60;;;;;;;9.90;100.00;97916.25;10176070;28;20693;-69
2022/02/16 21:30:24;;;;;;;9.63;3.15;;;;;;;9.97;100.00;97901.06;10166472;28;20103;-64
2022/02/16 21:35:41;;;;;;;4.95;2.70;;;;;;;10.01;100.00;97893.69;10175503;28;20132;-64
2022/02/16 21:40:39;;;;;;;8.32;3.20;;;;;;;10.15;100.00;97910.13;10180058;28;20056;-67
2022/02/16 21:45:56;;;;;;;2.50;1.05;;;;;;;10.27;100.00;97904.31;10179465;28;20091;-66
2022/02/16 21:50:55;;;;;;;2.15;0.70;;;;;;;10.37;100.00;97915.72;10184936;28;20041;-67
2022/02/16 21:55:52;;;;;;;4.15;0.40;;;;;;;10.40;100.00;97909.50;10177902;28;20076;-66
2022/02/16 22:00:49;;;;;;;3.03;0.60;;;;;;;10.36;100.00;97908.69;10190844;28;20076;-67
2022/02/16 22:05:46;;;;;;;1.70;0.30;;;;;;;10.27;100.00;97885.22;10176988;28;20069;-67
2022/02/16 22:10:46;;;;;;;1.30;0.30;;;;;;;10.32;100.00;97905.94;10190804;28;20046;-67
2022/02/16 22:15:44;;;;;;;2.45;0.93;;;;;;;10.17;100.00;97924.19;10182955;28;20534;-67
2022/02/16 22:20:41;;;;;;;2.97;0.50;;;;;;;9.93;100.00;97957.59;10190846;28;20069;-67
2022/02/16 22:25:37;;;;;;;6.80;1.20;;;;;;;9.71;100.00;97979.28;10186537;28;20053;-67
2022/02/16 22:30:34;;;;;;;6.75;0.50;;;;;;;9.46;100.00;97974.41;10195878;28;20041;-67
2022/02/16 22:35:30;;;;;;;3.08;0.30;;;;;;;9.23;100.00;97927.47;10190446;28;20065;-66
2022/02/16 22:40:27;;;;;;;6.07;0.85;;;;;;;9.13;100.00;97923.47;10189258;28;20045;-67
2022/02/16 22:45:24;;;;;;;7.70;1.13;;;;;;;9.10;100.00;97961.59;10184929;28;20100;-65
2022/02/16 22:50:20;;;;;;;5.43;0.65;;;;;;;9.01;100.00;97938.19;10188182;28;20054;-64
2022/02/16 22:55:17;;;;;;;6.30;0.70;;;;;;;9.00;100.00;97950.22;10179307;28;20050;-65